createdAt,value
2017-12-11T00:00:32.303Z,52.80
2017-12-11T00:01:33.808Z,52.40
2017-12-11T00:02:35.099Z,52.50
2017-12-11T00:03:36.376Z,52.40
2017-12-11T00:04:37.658Z,51.90
2017-12-11T00:05:38.984Z,52.10
2017-12-11T00:06:40.591Z,52.20
2017-12-11T00:07:42.637Z,52.40
2017-12-11T00:08:43.956Z,52.40
2017-12-11T00:09:45.264Z,52.30
2017-12-11T00:10:46.584Z,52.50
2017-12-11T00:11:48.972Z,52.80
2017-12-11T00:12:50.315Z,52.70
2017-12-11T00:13:51.638Z,53.10
2017-12-11T00:14:53.706Z,53.40
2017-12-11T00:16:08.052Z,53.50
2017-12-11T00:17:10.444Z,53.30
2017-12-11T00:18:11.754Z,53.20
2017-12-11T00:19:13.800Z,52.90
2017-12-11T00:20:15.124Z,52.80
2017-12-11T00:21:17.199Z,52.60
2017-12-11T00:22:30.928Z,52.60
2017-12-11T00:23:32.230Z,53.20
2017-12-11T00:24:33.564Z,52.70
2017-12-11T00:25:34.868Z,52.70
2017-12-11T00:26:36.172Z,52.70
2017-12-11T00:27:37.519Z,52.80
2017-12-11T00:28:38.836Z,52.70
2017-12-11T00:29:40.149Z,52.50
2017-12-11T00:30:41.437Z,52.50
2017-12-11T00:31:42.832Z,52.50
2017-12-11T00:32:44.530Z,52.50
2017-12-11T00:33:45.838Z,52.50
2017-12-11T00:34:47.879Z,52.30
2017-12-11T00:35:49.196Z,52.30
2017-12-11T00:36:50.515Z,52.10
2017-12-11T00:37:51.844Z,52.10
2017-12-11T00:38:53.160Z,52.00
2017-12-11T00:39:54.484Z,52.10
2017-12-11T00:40:55.797Z,52.10
2017-12-11T00:41:57.108Z,52.20
2017-12-11T00:42:59.430Z,52.10
2017-12-11T00:44:00.772Z,52.10
2017-12-11T00:45:02.100Z,52.10
2017-12-11T00:46:04.174Z,52.20
2017-12-11T00:47:05.544Z,52.10
2017-12-11T00:48:07.131Z,52.30
2017-12-11T00:49:08.460Z,52.20
2017-12-11T00:50:09.776Z,52.10
2017-12-11T00:51:11.106Z,52.40
2017-12-11T00:52:12.430Z,52.10
2017-12-11T00:53:14.062Z,52.10
2017-12-11T00:54:15.398Z,52.10
2017-12-11T00:55:16.737Z,52.00
2017-12-11T00:56:18.050Z,51.90
2017-12-11T00:57:19.330Z,51.90
2017-12-11T00:58:20.813Z,51.70
2017-12-11T00:59:22.149Z,51.60
2017-12-11T01:00:23.464Z,53.90
2017-12-11T01:01:24.796Z,56.30
2017-12-11T01:02:26.109Z,55.50
2017-12-11T01:03:27.794Z,55.80
2017-12-11T01:04:29.132Z,56.90
2017-12-11T01:05:30.468Z,56.20
2017-12-11T01:06:32.568Z,56.20
2017-12-11T01:07:33.874Z,56.10
2017-12-11T01:08:35.992Z,53.60
2017-12-11T01:09:37.321Z,53.50
2017-12-11T01:10:38.656Z,52.80
2017-12-11T01:11:39.984Z,52.60
2017-12-11T01:12:41.292Z,52.40
2017-12-11T01:13:43.506Z,52.50
2017-12-11T01:14:44.805Z,52.40
2017-12-11T01:15:46.944Z,52.60
2017-12-11T01:16:48.230Z,52.50
2017-12-11T01:17:49.564Z,52.60
2017-12-11T01:18:50.925Z,52.20
2017-12-11T01:19:52.266Z,52.50
2017-12-11T01:20:53.578Z,52.70
2017-12-11T01:21:55.646Z,53.00
2017-12-11T01:22:57.712Z,53.00
2017-12-11T01:23:59.382Z,52.90
2017-12-11T01:25:00.667Z,53.10
2017-12-11T01:26:01.968Z,53.10
2017-12-11T01:27:03.265Z,53.10
2017-12-11T01:28:04.562Z,53.20
2017-12-11T01:29:06.098Z,52.70
2017-12-11T01:30:07.376Z,52.70
2017-12-11T01:31:09.462Z,52.40
2017-12-11T01:32:10.798Z,52.30
2017-12-11T01:33:12.094Z,52.90
2017-12-11T01:34:13.462Z,52.10
2017-12-11T01:35:14.768Z,52.00
2017-12-11T01:36:16.072Z,51.70
2017-12-11T01:37:17.362Z,51.60
2017-12-11T01:38:18.642Z,51.60
2017-12-11T01:39:20.244Z,51.50
2017-12-11T01:40:21.589Z,51.50
2017-12-11T01:41:22.894Z,51.40
2017-12-11T01:42:24.226Z,51.40
2017-12-11T01:43:25.550Z,51.60
2017-12-11T01:44:27.086Z,51.90
2017-12-11T01:45:28.419Z,51.90
2017-12-11T01:46:29.738Z,51.90
2017-12-11T01:47:31.817Z,51.90
2017-12-11T01:48:33.115Z,51.90
2017-12-11T01:49:34.470Z,52.00
2017-12-11T01:50:36.550Z,52.00
2017-12-11T01:51:37.853Z,52.00
2017-12-11T01:52:39.146Z,52.10
2017-12-11T01:53:40.468Z,52.10
2017-12-11T01:54:42.856Z,52.30
2017-12-11T01:55:44.164Z,52.30
2017-12-11T01:56:45.468Z,52.30
2017-12-11T01:57:46.767Z,52.30
2017-12-11T01:58:48.814Z,52.50
2017-12-11T01:59:51.227Z,52.40
2017-12-11T02:00:52.565Z,52.20
2017-12-11T02:01:53.869Z,52.50
2017-12-11T02:02:55.916Z,52.50
2017-12-11T02:03:57.206Z,52.50
2017-12-11T02:04:58.770Z,52.50
2017-12-11T02:06:00.088Z,52.50
2017-12-11T02:07:01.410Z,52.60
2017-12-11T02:08:03.507Z,52.70
2017-12-11T02:09:04.791Z,52.60
2017-12-11T02:10:06.160Z,52.90
2017-12-11T02:11:07.476Z,53.60
2017-12-11T02:12:08.794Z,54.50
2017-12-11T02:13:10.084Z,55.00
2017-12-11T02:14:12.155Z,56.00
2017-12-11T02:15:13.736Z,56.00
2017-12-11T02:16:15.064Z,56.40
2017-12-11T02:17:16.375Z,56.40
2017-12-11T02:18:18.456Z,56.70
2017-12-11T02:19:19.783Z,56.70
2017-12-11T02:20:22.179Z,57.20
2017-12-11T02:21:23.517Z,57.10
2017-12-11T02:22:24.840Z,57.00
2017-12-11T02:23:26.906Z,57.70
2017-12-11T02:24:28.968Z,57.70
2017-12-11T02:25:31.226Z,57.90
2017-12-11T02:26:33.292Z,58.00
2017-12-11T02:27:35.372Z,58.00
2017-12-11T02:28:36.709Z,57.90
2017-12-11T02:29:38.026Z,58.10
2017-12-11T02:30:40.107Z,58.40
2017-12-11T02:31:41.443Z,58.40
2017-12-11T02:32:43.527Z,58.70
2017-12-11T02:33:44.844Z,58.70
2017-12-11T02:34:46.925Z,58.70
2017-12-11T02:35:48.338Z,58.70
2017-12-11T02:36:50.406Z,59.40
2017-12-11T02:37:52.477Z,58.90
2017-12-11T02:38:53.812Z,58.90
2017-12-11T02:39:55.883Z,59.00
2017-12-11T02:40:57.402Z,58.90
2017-12-11T02:41:58.737Z,58.80
2017-12-11T02:43:00.073Z,58.50
2017-12-11T02:44:01.403Z,58.40
2017-12-11T02:45:02.746Z,58.30
2017-12-11T02:46:04.116Z,58.00
2017-12-11T02:47:06.440Z,57.90
2017-12-11T02:48:07.764Z,57.20
2017-12-11T02:49:09.108Z,56.80
2017-12-11T02:50:10.430Z,56.10
2017-12-11T02:51:12.769Z,56.30
2017-12-11T02:52:14.093Z,56.10
2017-12-11T02:53:15.437Z,56.20
2017-12-11T02:54:16.745Z,55.80
2017-12-11T02:55:18.057Z,55.80
2017-12-11T02:56:20.289Z,56.00
2017-12-11T02:57:21.587Z,55.70
2017-12-11T02:58:22.913Z,56.20
2017-12-11T02:59:24.954Z,55.60
2017-12-11T03:00:26.255Z,55.50
2017-12-11T03:01:27.833Z,55.50
2017-12-11T03:02:29.142Z,55.30
2017-12-11T03:03:30.476Z,55.10
2017-12-11T03:04:31.795Z,54.90
2017-12-11T03:05:33.849Z,54.80
2017-12-11T03:06:35.234Z,54.80
2017-12-11T03:07:36.648Z,54.80
2017-12-11T03:08:38.694Z,54.80
2017-12-11T03:09:39.994Z,54.80
2017-12-11T03:10:41.312Z,54.70
2017-12-11T03:11:42.974Z,55.20
2017-12-11T03:12:44.315Z,55.40
2017-12-11T03:13:45.605Z,55.80
2017-12-11T03:14:46.949Z,56.50
2017-12-11T03:15:48.274Z,56.10
2017-12-11T03:16:49.799Z,55.90
2017-12-11T03:17:51.107Z,55.70
2017-12-11T03:18:53.126Z,55.30
2017-12-11T03:19:54.426Z,55.30
2017-12-11T03:20:55.742Z,55.10
2017-12-11T03:21:57.116Z,54.80
2017-12-11T03:22:58.418Z,55.10
2017-12-11T03:23:59.744Z,55.30
2017-12-11T03:25:01.060Z,55.30
2017-12-11T03:26:02.377Z,55.20
2017-12-11T03:27:04.468Z,55.10
2017-12-11T03:28:05.786Z,55.10
2017-12-11T03:29:07.103Z,54.80
2017-12-11T03:30:08.443Z,54.80
2017-12-11T03:31:09.765Z,54.90
2017-12-11T03:32:11.376Z,54.90
2017-12-11T03:33:12.686Z,54.20
2017-12-11T03:34:14.051Z,54.30
2017-12-11T03:35:15.363Z,54.20
2017-12-11T03:36:16.666Z,53.90
2017-12-11T03:37:17.988Z,53.90
2017-12-11T03:38:19.285Z,53.80
2017-12-11T03:39:20.607Z,54.10
2017-12-11T03:40:21.894Z,54.30
2017-12-11T03:41:23.950Z,54.50
2017-12-11T03:42:25.634Z,54.40
2017-12-11T03:43:26.914Z,54.30
2017-12-11T03:44:28.220Z,54.00
2017-12-11T03:45:29.542Z,53.90
2017-12-11T03:46:31.603Z,54.00
2017-12-11T03:47:33.673Z,54.00
2017-12-11T03:48:34.995Z,54.00
2017-12-11T03:49:37.042Z,54.10
2017-12-11T03:50:38.342Z,54.00
2017-12-11T03:51:39.644Z,54.10
2017-12-11T03:52:41.993Z,55.30
2017-12-11T03:53:43.282Z,55.30
2017-12-11T03:54:44.606Z,56.00
2017-12-11T03:55:46.656Z,57.20
2017-12-11T03:56:48.704Z,57.30
2017-12-11T03:57:50.399Z,57.30
2017-12-11T03:58:51.712Z,57.60
2017-12-11T03:59:53.759Z,58.20
2017-12-11T04:00:55.083Z,58.20
2017-12-11T04:01:56.454Z,58.30
2017-12-11T04:02:58.782Z,58.40
2017-12-11T04:04:00.108Z,58.40
2017-12-11T04:05:01.405Z,58.40
2017-12-11T04:06:03.487Z,58.40
2017-12-11T04:07:04.781Z,59.00
2017-12-11T04:08:06.700Z,58.50
2017-12-11T04:09:07.996Z,58.40
2017-12-11T04:10:09.307Z,58.10
2017-12-11T04:11:10.597Z,58.10
2017-12-11T04:12:12.649Z,57.50
2017-12-11T04:13:14.235Z,57.40
2017-12-11T04:14:15.528Z,57.50
2017-12-11T04:15:16.858Z,57.60
2017-12-11T04:16:18.165Z,57.90
2017-12-11T04:17:19.470Z,58.10
2017-12-11T04:18:21.070Z,58.20
2017-12-11T04:19:22.384Z,58.40
2017-12-11T04:20:23.683Z,58.70
2017-12-11T04:21:26.486Z,59.10
2017-12-11T04:22:28.530Z,58.90
2017-12-11T04:23:29.882Z,58.90
2017-12-11T04:24:31.193Z,58.80
2017-12-11T04:25:32.504Z,58.90
2017-12-11T04:26:33.802Z,58.80
2017-12-11T04:27:35.111Z,58.80
2017-12-11T04:28:36.702Z,58.70
2017-12-11T04:29:38.005Z,58.70
2017-12-11T04:30:39.316Z,58.80
2017-12-11T04:31:40.612Z,58.40
2017-12-11T04:32:41.909Z,58.40
2017-12-11T04:33:43.564Z,58.30
2017-12-11T04:34:44.868Z,58.20
2017-12-11T04:35:46.167Z,58.10
2017-12-11T04:36:47.471Z,58.00
2017-12-11T04:37:49.515Z,58.20
2017-12-11T04:38:51.918Z,58.80
2017-12-11T04:39:53.215Z,58.40
2017-12-11T04:40:54.511Z,58.50
2017-12-11T04:41:55.795Z,58.50
2017-12-11T04:42:57.110Z,58.30
2017-12-11T04:43:58.673Z,58.50
2017-12-11T04:45:00.703Z,58.20
2017-12-11T04:46:01.999Z,58.20
2017-12-11T04:47:03.299Z,58.30
2017-12-11T04:48:04.583Z,58.20
2017-12-11T04:49:06.177Z,58.10
2017-12-11T04:50:07.462Z,58.10
2017-12-11T04:51:08.765Z,58.00
2017-12-11T04:52:10.078Z,58.10
2017-12-11T04:53:12.144Z,58.10
2017-12-11T04:54:13.705Z,58.10
2017-12-11T04:55:14.975Z,57.90
2017-12-11T04:56:16.283Z,57.70
2017-12-11T04:57:17.588Z,58.00
2017-12-11T04:58:18.907Z,58.30
2017-12-11T04:59:20.480Z,58.40
2017-12-11T05:00:21.773Z,58.40
2017-12-11T05:01:23.094Z,58.40
2017-12-11T05:02:25.167Z,58.60
2017-12-11T05:03:26.502Z,58.60
2017-12-11T05:04:28.839Z,58.50
2017-12-11T05:05:30.152Z,58.50
2017-12-11T05:06:32.217Z,59.20
2017-12-11T05:07:33.534Z,58.70
2017-12-11T05:08:34.945Z,58.70
2017-12-11T05:09:37.263Z,58.70
2017-12-11T05:10:38.595Z,58.70
2017-12-11T05:11:39.883Z,58.70
2017-12-11T05:12:41.204Z,58.80
2017-12-11T05:13:42.506Z,58.70
2017-12-11T05:14:44.094Z,58.70
2017-12-11T05:15:45.425Z,58.60
2017-12-11T05:16:46.728Z,58.60
2017-12-11T05:17:48.799Z,58.80
2017-12-11T05:18:50.094Z,58.80
2017-12-11T05:19:51.714Z,58.70
2017-12-11T05:20:53.057Z,58.70
2017-12-11T05:21:54.364Z,58.80
2017-12-11T05:22:56.403Z,58.80
2017-12-11T05:23:57.749Z,58.80
2017-12-11T05:24:59.108Z,58.80
2017-12-11T05:26:01.151Z,58.60
2017-12-11T05:27:02.503Z,58.50
2017-12-11T05:28:03.807Z,58.60
2017-12-11T05:29:05.124Z,59.20
2017-12-11T05:30:06.751Z,58.70
2017-12-11T05:31:08.816Z,59.10
2017-12-11T05:32:10.871Z,59.00
2017-12-11T05:33:12.902Z,59.20
2017-12-11T05:34:14.234Z,59.10
2017-12-11T05:35:15.852Z,59.20
2017-12-11T05:36:17.185Z,59.30
2017-12-11T05:37:18.479Z,59.40
2017-12-11T05:38:19.816Z,59.40
2017-12-11T05:39:21.905Z,59.50
2017-12-11T05:40:23.510Z,59.50
2017-12-11T05:41:24.801Z,59.60
2017-12-11T05:42:26.866Z,59.60
2017-12-11T05:43:28.912Z,59.50
2017-12-11T05:44:30.231Z,59.50
2017-12-11T05:45:31.841Z,59.50
2017-12-11T05:46:33.175Z,59.70
2017-12-11T05:47:34.509Z,59.80
2017-12-11T05:48:36.581Z,60.60
2017-12-11T05:49:37.878Z,59.80
2017-12-11T05:50:39.472Z,59.80
2017-12-11T05:51:40.779Z,59.30
2017-12-11T05:52:42.100Z,59.10
2017-12-11T05:53:43.409Z,58.90
2017-12-11T05:54:44.718Z,58.90
2017-12-11T05:55:46.043Z,58.90
2017-12-11T05:56:47.355Z,59.10
2017-12-11T05:57:48.653Z,59.20
2017-12-11T05:58:50.692Z,59.10
2017-12-11T05:59:51.974Z,59.10
2017-12-11T06:00:53.328Z,58.80
2017-12-11T06:01:54.654Z,58.80
2017-12-11T06:02:56.696Z,58.50
2017-12-11T06:03:58.723Z,58.60
2017-12-11T06:05:00.019Z,58.10
2017-12-11T06:06:02.392Z,58.40
2017-12-11T06:07:03.658Z,58.30
2017-12-11T06:08:04.933Z,58.10
2017-12-11T06:09:06.264Z,58.20
2017-12-11T06:10:07.563Z,58.10
2017-12-11T06:11:09.125Z,58.20
2017-12-11T06:12:10.414Z,57.90
2017-12-11T06:13:11.715Z,57.60
2017-12-11T06:14:13.023Z,57.50
2017-12-11T06:15:15.071Z,58.20
2017-12-11T06:16:17.304Z,58.20
2017-12-11T06:17:19.353Z,58.80
2017-12-11T06:18:20.695Z,58.80
2017-12-11T06:19:22.085Z,58.40
2017-12-11T06:20:24.131Z,58.90
2017-12-11T06:21:25.444Z,59.30
2017-12-11T06:22:26.764Z,59.80
2017-12-11T06:23:28.082Z,59.20
2017-12-11T06:24:30.133Z,59.90
2017-12-11T06:25:32.195Z,59.50
2017-12-11T06:26:34.267Z,59.60
2017-12-11T06:27:36.335Z,59.40
2017-12-11T06:28:37.647Z,59.40
2017-12-11T06:29:38.952Z,59.20
2017-12-11T06:30:40.254Z,59.30
2017-12-11T06:31:42.646Z,59.50
2017-12-11T06:32:43.943Z,59.50
2017-12-11T06:33:45.243Z,59.60
2017-12-11T06:34:46.552Z,59.40
2017-12-11T06:35:48.589Z,59.90
2017-12-11T06:36:50.166Z,59.80
2017-12-11T06:37:51.467Z,60.10
2017-12-11T06:38:52.770Z,60.20
2017-12-11T06:39:54.075Z,60.40
2017-12-11T06:40:56.106Z,60.60
2017-12-11T06:41:57.429Z,60.60
2017-12-11T06:42:58.737Z,60.60
2017-12-11T06:44:00.781Z,60.60
2017-12-11T06:45:02.101Z,60.60
2017-12-11T06:46:03.413Z,60.50
2017-12-11T06:47:04.724Z,60.50
2017-12-11T06:48:06.769Z,60.70
2017-12-11T06:49:08.047Z,60.70
2017-12-11T06:50:09.339Z,60.70
2017-12-11T06:51:10.642Z,60.60
2017-12-11T06:52:11.997Z,60.90
2017-12-11T06:53:13.283Z,60.90
2017-12-11T06:54:14.584Z,61.00
2017-12-11T06:55:15.888Z,60.90
2017-12-11T06:56:17.932Z,61.10
2017-12-11T06:57:19.251Z,61.10
2017-12-11T06:58:20.539Z,61.20
2017-12-11T06:59:22.587Z,61.30
2017-12-11T07:00:24.631Z,61.30
2017-12-11T07:01:25.928Z,61.30
2017-12-11T07:02:27.358Z,62.10
2017-12-11T07:03:28.709Z,61.30
2017-12-11T07:04:30.002Z,61.30
2017-12-11T07:05:31.308Z,61.60
2017-12-11T07:06:32.619Z,61.70
2017-12-11T07:07:34.729Z,62.00
2017-12-11T07:08:36.770Z,62.10
2017-12-11T07:09:38.325Z,62.10
2017-12-11T07:10:39.637Z,62.10
2017-12-11T07:11:40.933Z,62.80
2017-12-11T07:12:42.287Z,62.30
2017-12-11T07:13:43.619Z,62.20
2017-12-11T07:14:44.917Z,62.20
2017-12-11T07:15:46.221Z,62.00
2017-12-11T07:16:47.538Z,62.00
2017-12-11T07:17:49.868Z,61.90
2017-12-11T07:18:51.162Z,61.90
2017-12-11T07:19:52.477Z,62.10
2017-12-11T07:20:53.783Z,62.40
2017-12-11T07:21:55.825Z,62.60
2017-12-11T07:22:57.179Z,62.50
2017-12-11T07:23:59.209Z,62.60
2017-12-11T07:25:00.522Z,62.60
2017-12-11T07:26:01.815Z,62.60
2017-12-11T07:27:03.857Z,62.50
2017-12-11T07:28:05.200Z,62.50
2017-12-11T07:29:06.508Z,62.50
2017-12-11T07:30:07.802Z,62.60
2017-12-11T07:31:09.846Z,62.80
2017-12-11T07:32:11.220Z,62.70
2017-12-11T07:33:12.511Z,62.90
2017-12-11T07:34:13.793Z,63.10
2017-12-11T07:35:15.087Z,63.00
2017-12-11T07:36:16.395Z,62.90
2017-12-11T07:37:18.429Z,62.80
2017-12-11T07:38:19.997Z,62.80
2017-12-11T07:39:22.054Z,62.60
2017-12-11T07:40:24.122Z,62.60
2017-12-11T07:41:26.184Z,62.60
2017-12-11T07:42:27.493Z,62.60
2017-12-11T07:43:29.103Z,62.50
2017-12-11T07:44:30.388Z,62.40
2017-12-11T07:45:31.695Z,62.40
2017-12-11T07:46:33.001Z,62.20
2017-12-11T07:47:35.039Z,62.20
2017-12-11T07:48:36.627Z,62.20
2017-12-11T07:49:37.909Z,62.20
2017-12-11T07:50:39.199Z,62.20
2017-12-11T07:51:41.223Z,62.10
2017-12-11T07:52:42.543Z,62.00
2017-12-11T07:53:44.374Z,62.00
2017-12-11T07:54:45.671Z,62.00
2017-12-11T07:55:46.971Z,62.70
2017-12-11T07:56:48.271Z,62.10
2017-12-11T07:57:50.317Z,62.20
2017-12-11T07:58:51.911Z,62.10
2017-12-11T07:59:53.213Z,62.10
2017-12-11T08:00:54.528Z,62.80
2017-12-11T08:01:55.835Z,62.00
2017-12-11T08:02:57.121Z,62.00
2017-12-11T08:03:58.683Z,62.00
2017-12-11T08:04:59.973Z,62.00
2017-12-11T08:06:01.271Z,62.10
2017-12-11T08:07:02.585Z,62.20
2017-12-11T08:08:03.866Z,62.20
2017-12-11T08:09:06.267Z,62.60
2017-12-11T08:10:07.617Z,62.20
2017-12-11T08:11:08.929Z,62.30
2017-12-11T08:12:10.957Z,62.50
2017-12-11T08:13:12.255Z,62.50
2017-12-11T08:14:13.835Z,62.50
2017-12-11T08:15:15.861Z,62.60
2017-12-11T08:16:17.142Z,62.50
2017-12-11T08:17:18.443Z,62.60
2017-12-11T08:18:19.750Z,62.60
2017-12-11T08:19:21.314Z,62.60
2017-12-11T08:20:23.344Z,63.30
2017-12-11T08:21:24.661Z,62.60
2017-12-11T08:22:25.957Z,62.60
2017-12-11T08:23:27.992Z,62.60
2017-12-11T08:24:29.345Z,62.50
2017-12-11T08:25:30.649Z,62.40
2017-12-11T08:26:31.949Z,62.30
2017-12-11T08:27:34.052Z,62.30
2017-12-11T08:28:35.363Z,62.30
2017-12-11T08:29:36.921Z,62.00
2017-12-11T08:30:38.203Z,62.20
2017-12-11T08:31:39.505Z,62.30
2017-12-11T08:32:40.808Z,62.30
2017-12-11T08:33:42.095Z,62.20
2017-12-11T08:34:43.718Z,62.20
2017-12-11T08:35:45.756Z,62.50
2017-12-11T08:36:47.079Z,62.50
2017-12-11T08:37:48.385Z,62.60
2017-12-11T08:38:49.685Z,62.60
2017-12-11T08:39:51.069Z,62.40
2017-12-11T08:40:52.402Z,62.40
2017-12-11T08:41:54.439Z,62.50
2017-12-11T08:42:55.768Z,62.50
2017-12-11T08:43:57.078Z,62.50
2017-12-11T08:44:58.719Z,62.20
2017-12-11T08:46:00.013Z,62.30
2017-12-11T08:47:01.327Z,62.30
2017-12-11T08:48:03.371Z,62.60
2017-12-11T08:49:04.691Z,62.30
2017-12-11T08:50:06.270Z,62.30
2017-12-11T08:51:07.581Z,62.20
2017-12-11T08:52:09.623Z,62.40
2017-12-11T08:53:11.646Z,62.50
2017-12-11T08:54:13.674Z,62.60
2017-12-11T08:55:15.009Z,62.60
2017-12-11T08:56:16.317Z,62.60
2017-12-11T08:57:17.647Z,62.50
2017-12-11T08:58:18.944Z,62.60
2017-12-11T08:59:20.244Z,62.50
2017-12-11T09:00:22.064Z,62.50
2017-12-11T09:01:23.377Z,62.50
2017-12-11T09:02:24.663Z,62.70
2017-12-11T09:03:26.724Z,62.80
2017-12-11T09:04:28.029Z,62.60
2017-12-11T09:05:29.635Z,62.70
2017-12-11T09:06:30.963Z,62.70
2017-12-11T09:07:32.256Z,62.40
2017-12-11T09:08:33.543Z,62.50
2017-12-11T09:09:34.851Z,62.70
2017-12-11T09:10:36.297Z,62.70
2017-12-11T09:11:37.609Z,62.70
2017-12-11T09:12:39.653Z,63.10
2017-12-11T09:13:40.961Z,62.40
2017-12-11T09:14:42.269Z,62.60
2017-12-11T09:15:44.656Z,62.80
2017-12-11T09:16:45.959Z,62.70
2017-12-11T09:17:48.006Z,63.40
2017-12-11T09:18:49.315Z,62.70
2017-12-11T09:19:50.635Z,62.70
2017-12-11T09:20:52.236Z,62.70
2017-12-11T09:21:53.529Z,62.70
2017-12-11T09:22:54.829Z,62.70
2017-12-11T09:23:56.162Z,62.60
2017-12-11T09:24:57.513Z,62.60
2017-12-11T09:25:59.071Z,62.30
2017-12-11T09:27:00.367Z,62.10
2017-12-11T09:28:01.679Z,61.90
2017-12-11T09:29:03.715Z,62.20
2017-12-11T09:30:05.029Z,62.20
2017-12-11T09:31:06.517Z,62.20
2017-12-11T09:32:08.572Z,62.20
2017-12-11T09:33:09.863Z,62.10
2017-12-11T09:34:11.159Z,62.10
2017-12-11T09:35:13.203Z,61.90
2017-12-11T09:36:14.806Z,61.90
2017-12-11T09:37:16.098Z,62.00
2017-12-11T09:38:17.391Z,62.10
2017-12-11T09:39:18.679Z,62.10
2017-12-11T09:40:19.981Z,62.20
2017-12-11T09:41:21.831Z,62.20
2017-12-11T09:42:23.158Z,62.20
2017-12-11T09:43:25.255Z,62.00
2017-12-11T09:44:26.566Z,62.00
2017-12-11T09:45:27.877Z,62.10
2017-12-11T09:46:29.243Z,62.20
2017-12-11T09:47:30.577Z,62.20
2017-12-11T09:48:32.620Z,62.30
2017-12-11T09:49:33.941Z,62.20
2017-12-11T09:50:35.285Z,62.30
2017-12-11T09:51:36.911Z,62.20
2017-12-11T09:52:38.231Z,62.10
2017-12-11T09:53:40.297Z,62.20
2017-12-11T09:54:41.623Z,62.00
2017-12-11T09:55:43.699Z,62.20
2017-12-11T09:56:45.359Z,62.20
2017-12-11T09:57:46.675Z,62.10
2017-12-11T09:58:47.976Z,62.00
2017-12-11T09:59:49.273Z,61.80
2017-12-11T10:00:51.343Z,61.50
2017-12-11T10:01:52.932Z,61.50
2017-12-11T10:02:54.247Z,61.50
2017-12-11T10:03:55.563Z,61.40
2017-12-11T10:04:57.607Z,61.30
2017-12-11T10:05:58.911Z,61.30
2017-12-11T10:07:00.497Z,61.60
2017-12-11T10:08:01.812Z,61.10
2017-12-11T10:09:03.163Z,60.80
2017-12-11T10:10:04.495Z,60.70
2017-12-11T10:11:05.915Z,60.80
2017-12-11T10:12:07.263Z,60.60
2017-12-11T10:13:08.587Z,60.60
2017-12-11T10:14:09.904Z,60.60
2017-12-11T10:15:11.215Z,60.60
2017-12-11T10:16:12.545Z,60.70
2017-12-11T10:17:14.136Z,60.10
2017-12-11T10:18:15.459Z,58.70
2017-12-11T10:19:16.769Z,56.80
2017-12-11T10:20:18.075Z,55.10
2017-12-11T10:21:20.135Z,54.90
2017-12-11T10:22:22.475Z,54.00
2017-12-11T10:23:23.794Z,53.90
2017-12-11T10:24:25.118Z,54.10
2017-12-11T10:25:26.430Z,54.30
2017-12-11T10:26:28.467Z,53.20
2017-12-11T10:27:30.047Z,53.10
2017-12-11T10:28:32.079Z,51.70
2017-12-11T10:29:33.381Z,51.70
2017-12-11T10:30:34.683Z,51.60
2017-12-11T10:31:36.713Z,52.30
2017-12-11T10:32:38.335Z,52.20
2017-12-11T10:33:39.657Z,52.40
2017-12-11T10:34:41.189Z,52.50
2017-12-11T10:35:43.235Z,52.50
2017-12-11T10:36:44.531Z,52.30
2017-12-11T10:37:46.078Z,51.90
2017-12-11T10:38:47.379Z,51.40
2017-12-11T10:39:49.435Z,52.50
2017-12-11T10:40:51.497Z,52.30
2017-12-11T10:41:53.545Z,51.90
2017-12-11T10:42:55.043Z,51.00
2017-12-11T10:43:56.356Z,51.20
2017-12-11T10:44:58.421Z,52.10
2017-12-11T10:46:00.475Z,52.90
2017-12-11T10:47:02.563Z,51.80
2017-12-11T10:48:04.423Z,51.70
2017-12-11T10:49:05.717Z,51.40
2017-12-11T10:50:07.024Z,51.90
2017-12-11T10:51:08.355Z,52.00
2017-12-11T10:52:09.677Z,51.90
2017-12-11T10:53:11.057Z,52.50
2017-12-11T10:54:12.369Z,52.20
2017-12-11T10:55:13.691Z,52.40
2017-12-11T10:56:15.727Z,52.40
2017-12-11T10:57:17.037Z,52.30
2017-12-11T10:58:18.605Z,52.50
2017-12-11T10:59:19.899Z,52.90
2017-12-11T11:00:21.207Z,53.00
2017-12-11T11:01:22.517Z,53.30
2017-12-11T11:02:23.827Z,53.70
2017-12-11T11:03:25.206Z,53.50
2017-12-11T11:04:26.513Z,54.10
2017-12-11T11:05:28.575Z,54.10
2017-12-11T11:06:29.877Z,54.10
2017-12-11T11:07:31.173Z,54.40
2017-12-11T11:08:32.517Z,54.60
2017-12-11T11:09:33.857Z,54.90
2017-12-11T11:10:35.168Z,55.10
2017-12-11T11:11:37.313Z,55.40
2017-12-11T11:12:38.663Z,55.40
2017-12-11T11:13:40.016Z,54.40
2017-12-11T11:14:41.306Z,54.30
2017-12-11T11:15:42.609Z,53.30
2017-12-11T11:16:44.645Z,50.40
2017-12-11T11:17:45.950Z,50.30
2017-12-11T11:18:47.525Z,50.00
2017-12-11T11:19:48.831Z,48.40
2017-12-11T11:20:50.131Z,48.40
2017-12-11T11:21:51.441Z,47.70
2017-12-11T11:22:52.751Z,48.30
2017-12-11T11:23:54.330Z,47.30
2017-12-11T11:24:55.641Z,48.10
2017-12-11T11:25:56.957Z,47.70
2017-12-11T11:26:58.255Z,48.10
2017-12-11T11:27:59.568Z,48.50
2017-12-11T11:29:01.236Z,48.40
2017-12-11T11:30:02.556Z,48.80
2017-12-11T11:31:04.614Z,50.70
2017-12-11T11:32:06.672Z,50.60
2017-12-11T11:33:08.707Z,50.80
2017-12-11T11:34:10.054Z,50.70
2017-12-11T11:35:11.358Z,50.90
2017-12-11T11:36:13.399Z,50.60
2017-12-11T11:37:14.701Z,51.10
2017-12-11T11:38:16.100Z,51.30
2017-12-11T11:39:17.706Z,51.50
2017-12-11T11:40:18.999Z,51.40
2017-12-11T11:41:20.302Z,52.20
2017-12-11T11:42:22.368Z,51.90
2017-12-11T11:43:24.399Z,52.10
2017-12-11T11:44:25.975Z,52.10
2017-12-11T11:45:28.029Z,52.40
2017-12-11T11:46:30.079Z,52.70
2017-12-11T11:47:31.379Z,52.60
2017-12-11T11:48:33.453Z,52.80
2017-12-11T11:49:35.079Z,52.80
2017-12-11T11:50:36.387Z,53.00
2017-12-11T11:51:38.429Z,53.60
2017-12-11T11:52:40.483Z,53.90
2017-12-11T11:53:41.795Z,53.60
2017-12-11T11:54:43.409Z,53.70
2017-12-11T11:55:44.743Z,53.90
2017-12-11T11:56:46.829Z,54.00
2017-12-11T11:57:48.159Z,54.00
2017-12-11T11:58:49.480Z,54.00
2017-12-11T11:59:51.585Z,54.10
2017-12-11T12:00:52.932Z,54.00
2017-12-11T12:01:54.251Z,54.10
2017-12-11T12:02:55.562Z,54.20
2017-12-11T12:03:56.872Z,54.20
2017-12-11T12:04:58.499Z,54.50
2017-12-11T12:05:59.822Z,54.70
2017-12-11T12:07:01.893Z,54.70
2017-12-11T12:08:03.200Z,54.70
2017-12-11T12:09:04.527Z,54.70
2017-12-11T12:10:06.123Z,54.60
2017-12-11T12:11:07.459Z,54.80
2017-12-11T12:12:09.567Z,55.10
2017-12-11T12:13:10.947Z,55.00
2017-12-11T12:14:13.027Z,55.30
2017-12-11T12:15:15.363Z,55.40
2017-12-11T12:16:16.663Z,55.30
2017-12-11T12:17:17.973Z,55.30
2017-12-11T12:18:20.039Z,55.50
2017-12-11T12:19:22.139Z,55.90
2017-12-11T12:20:23.787Z,55.80
2017-12-11T12:21:25.134Z,55.70
2017-12-11T12:22:26.465Z,55.70
2017-12-11T12:23:27.784Z,55.80
2017-12-11T12:24:29.839Z,56.50
2017-12-11T12:25:31.949Z,56.80
2017-12-11T12:26:33.283Z,56.80
2017-12-11T12:27:34.597Z,57.10
2017-12-11T12:28:35.915Z,57.20
2017-12-11T12:29:37.241Z,57.50
2017-12-11T12:30:38.845Z,57.50
2017-12-11T12:31:40.180Z,57.40
2017-12-11T12:32:41.487Z,57.60
2017-12-11T12:33:42.816Z,57.60
2017-12-11T12:34:44.127Z,57.60
2017-12-11T12:35:45.642Z,57.70
2017-12-11T12:36:47.722Z,57.50
2017-12-11T12:37:49.015Z,57.50
2017-12-11T12:38:50.341Z,57.60
2017-12-11T12:39:51.651Z,57.50
2017-12-11T12:40:53.027Z,57.60
2017-12-11T12:41:55.097Z,58.10
2017-12-11T12:42:56.408Z,58.10
2017-12-11T12:43:57.716Z,58.20
2017-12-11T12:44:59.747Z,58.50
2017-12-11T12:46:01.343Z,58.40
2017-12-11T12:47:02.649Z,58.60
2017-12-11T12:48:03.962Z,58.50
2017-12-11T12:49:05.994Z,58.70
2017-12-11T12:50:07.287Z,58.70
2017-12-11T12:51:08.777Z,58.90
2017-12-11T12:52:10.109Z,58.90
2017-12-11T12:53:12.155Z,58.80
2017-12-11T12:54:14.179Z,58.80
2017-12-11T12:55:15.538Z,58.80
2017-12-11T12:56:17.149Z,59.10
2017-12-11T12:57:18.481Z,59.20
2017-12-11T12:58:19.785Z,59.30
2017-12-11T12:59:21.102Z,59.30
2017-12-11T13:00:22.407Z,59.20
2017-12-11T13:01:23.760Z,59.20
2017-12-11T13:02:25.062Z,59.30
2017-12-11T13:03:26.396Z,59.30
2017-12-11T13:04:27.702Z,59.30
2017-12-11T13:05:29.012Z,59.30
2017-12-11T13:06:30.783Z,59.30
2017-12-11T13:07:32.108Z,59.30
2017-12-11T13:08:34.189Z,59.00
2017-12-11T13:09:35.496Z,59.00
2017-12-11T13:10:37.532Z,59.00
2017-12-11T13:11:38.875Z,59.00
2017-12-11T13:12:40.241Z,58.90